Alderbury, United Kingdom
Current Conditions -  °F | °C
As of 9:50 AM on Sunday 21 Dec 2014 (Local Time) from EGDM Reporting Station
Broken Clouds Broken Clouds  
Wind Chill: 40°   Ceiling: 1900
Heat Index: 46°   Visibility: 6mi
Dew Point: 41°   Wind: 15mph
Humidity: 81%   Direction: 230°SW
Pressure: 30.36"   Gusts: NA
Location:  51.04°N, 1.73°W
Report Text: EGDM 210950Z AUTO 23013KT 9999 BKN019/// 08/05 Q1028
Loading
Personal Weather Stations






























Interactive Weather Map New forecast layout! Learn more

10-Day Weather Forecast

Advertisements
Track Severe Weather on mobile